Time;durP1;ratioP1;P1;durP2;ratioP2;P2;SDS_P1;SDS_P2;PMS_P1;PMS_P2;Temp;Humidity;BMP_temperature;BMP_pressure;BME280_temperature;BME280_humidity;BME280_pressure;Samples;Min_cycle;Max_cycle;Signal;HPM_P1;HPM_P2
2021/05/05 00:00:27;;;;;;;;;;;;;;;;;;4371073;32;19989;-84
2021/05/05 00:02:57;;;;;;;;;;;;;;;;;;4362419;32;19951;-84
2021/05/05 00:05:27;;;;;;;;;;;;;;;;;;4361782;32;19955;-84
2021/05/05 00:07:57;;;;;;;;;;;;;;;;;;4359403;32;19967;-84
2021/05/05 00:10:27;;;;;;;;;;;;;;;;;;4365423;32;20346;-84
2021/05/05 00:12:58;;;;;;;;;;;;;;;;;;4335270;32;20630;-84
2021/05/05 00:15:28;;;;;;;;;;;;;;;;;;4363070;32;19967;-84
2021/05/05 00:17:59;;;;;;;;;;;;;;;;;;4356642;32;19986;-83
2021/05/05 00:20:29;;;;;;;;;;;;;;;;;;4358758;32;20007;-84
2021/05/05 00:23:01;;;;;;;;;;;;;;;;;;4348888;32;19959;-83
2021/05/05 00:25:31;;;;;;;;;;;;;;;;;;4366817;32;20018;-83
2021/05/05 00:28:02;;;;;;;;;;;;;;;;;;4356929;32;20497;-84
2021/05/05 00:30:30;;;;;;;;;;;;;;;;;;4336569;32;19962;-85
2021/05/05 00:33:00;;;;;;;;;;;;;;;;;;4336424;32;20105;-84
2021/05/05 00:35:28;;;;;;;;;;;;;;;;;;4366454;32;20400;-84
2021/05/05 00:38:05;;;;;;;;;;;;;;;;;;4358514;32;20491;-84
2021/05/05 00:59:18;;;;;;;;;;;;;;;;;;4353403;32;19955;-84
2021/05/05 01:01:57;;;;;;;;;;;;;;;;;;4364394;32;20014;-84
2021/05/05 01:04:28;;;;;;;;;;;;;;;;;;4366408;32;20589;-84
2021/05/05 01:07:00;;;;;;;;;;;;;;;;;;4358816;32;20019;-86
2021/05/05 01:09:30;;;;;;;;;;;;;;;;;;4361110;32;19954;-84
2021/05/05 01:12:01;;;;;;;;;;;;;;;;;;4355175;32;19947;-84
2021/05/05 01:14:32;;;;;;;;;;;;;;;;;;4363253;32;20024;-84
2021/05/05 01:17:02;;;;;;;;;;;;;;;;;;4343677;32;20614;-84
2021/05/05 01:19:30;;;;;;;;;;;;;;;;;;4363376;32;19989;-84
2021/05/05 01:22:01;;;;;;;;;;;;;;;;;;4357726;32;19951;-84
2021/05/05 01:24:33;;;;;;;;;;;;;;;;;;4359196;32;19963;-84
2021/05/05 01:27:03;;;;;;;;;;;;;;;;;;4360713;32;19959;-84
2021/05/05 01:29:33;;;;;;;;;;;;;;;;;;4361287;32;19991;-84
2021/05/05 01:32:03;;;;;;;;;;;;;;;;;;4358407;32;20043;-84
2021/05/05 01:34:35;;;;;;;;;;;;;;;;;;4360356;32;19964;-84
2021/05/05 01:37:02;;;;;;;;;;;;;;;;;;4357650;32;20009;-84
2021/05/05 01:39:30;;;;;;;;;;;;;;;;;;4356693;32;19960;-84
2021/05/05 01:42:02;;;;;;;;;;;;;;;;;;4356395;32;19986;-84
2021/05/05 01:44:30;;;;;;;;;;;;;;;;;;4355568;32;20555;-85
2021/05/05 01:47:02;;;;;;;;;;;;;;;;;;4359403;32;20472;-84
2021/05/05 01:49:33;;;;;;;;;;;;;;;;;;4353130;32;19947;-84
2021/05/05 01:52:05;;;;;;;;;;;;;;;;;;4354224;32;19956;-84
2021/05/05 01:54:33;;;;;;;;;;;;;;;;;;4355040;32;20354;-84
2021/05/05 01:57:03;;;;;;;;;;;;;;;;;;4341209;32;20321;-84
2021/05/05 01:59:34;;;;;;;;;;;;;;;;;;4357651;32;19967;-84
2021/05/05 02:02:04;;;;;;;;;;;;;;;;;;4366825;32;19955;-84
2021/05/05 02:04:35;;;;;;;;;;;;;;;;;;4359398;32;20079;-84
2021/05/05 02:07:07;;;;;;;;;;;;;;;;;;4354061;32;19955;-84
2021/05/05 02:09:41;;;;;;;;;;;;;;;;;;4352820;32;20002;-84
2021/05/05 02:12:11;;;;;;;;;;;;;;;;;;4352456;32;20327;-84
2021/05/05 02:14:43;;;;;;;;;;;;;;;;;;4352403;32;19955;-84
2021/05/05 02:17:13;;;;;;;;;;;;;;;;;;4360406;32;19993;-84
2021/05/05 02:19:44;;;;;;;;;;;;;;;;;;4349975;32;19960;-85
2021/05/05 02:22:14;;;;;;;;;;;;;;;;;;4349643;32;19956;-84
2021/05/05 02:24:42;;;;;;;;;;;;;;;;;;4338812;32;19978;-85
2021/05/05 02:27:13;;;;;;;;;;;;;;;;;;4366721;32;19991;-85
2021/05/05 02:29:44;;;;;;;;;;;;;;;;;;4363345;32;19959;-84
2021/05/05 02:32:15;;;;;;;;;;;;;;;;;;4349512;32;19960;-85
2021/05/05 02:34:46;;;;;;;;;;;;;;;;;;4356012;32;19956;-85
2021/05/05 02:37:16;;;;;;;;;;;;;;;;;;4349129;32;19974;-85
2021/05/05 02:39:47;;;;;;;;;;;;;;;;;;4362390;32;20377;-83
2021/05/05 02:42:24;;;;;;;;;;;;;;;;;;4354784;32;19959;-85
2021/05/05 02:44:54;;;;;;;;;;;;;;;;;;4345328;32;20020;-83
2021/05/05 02:47:25;;;;;;;;;;;;;;;;;;4365792;32;19968;-84
2021/05/05 02:49:53;;;;;;;;;;;;;;;;;;4353040;33;19990;-84
2021/05/05 02:52:26;;;;;;;;;;;;;;;;;;4356061;32;20007;-84
2021/05/05 02:54:56;;;;;;;;;;;;;;;;;;4354444;32;19980;-84
2021/05/05 02:57:26;;;;;;;;;;;;;;;;;;4364227;32;20069;-84
2021/05/05 02:59:56;;;;;;;;;;;;;;;;;;4356135;32;19956;-84
2021/05/05 03:02:27;;;;;;;;;;;;;;;;;;4363995;32;19951;-84
2021/05/05 03:04:56;;;;;;;;;;;;;;;;;;4356725;32;20140;-84
2021/05/05 03:07:27;;;;;;;;;;;;;;;;;;4367610;32;20018;-84
2021/05/05 03:09:57;;;;;;;;;;;;;;;;;;4364333;32;19994;-84
2021/05/05 03:15:08;;;;;;;;;;;;;;;;;;4314049;33;19963;-82
2021/05/05 03:17:38;;;;;;;;;;;;;;;;;;4326576;33;20306;-81
2021/05/05 03:20:09;;;;;;;;;;;;;;;;;;4326730;33;19952;-82
2021/05/05 03:22:39;;;;;;;;;;;;;;;;;;4324304;33;20022;-82
2021/05/05 03:25:09;;;;;;;;;;;;;;;;;;4320070;33;20003;-82
2021/05/05 03:27:39;;;;;;;;;;;;;;;;;;4325266;33;20271;-81
2021/05/05 03:30:09;;;;;;;;;;;;;;;;;;4325986;33;19966;-82
2021/05/05 03:32:40;;;;;;;;;;;;;;;;;;4319301;33;20516;-83
2021/05/05 03:35:10;;;;;;;;;;;;;;;;;;4323295;33;20294;-84
2021/05/05 03:37:40;;;;;;;;;;;;;;;;;;4326647;33;20421;-84
2021/05/05 03:40:10;;;;;;;;;;;;;;;;;;4338619;33;19991;-84
2021/05/05 03:42:40;;;;;;;;;;;;;;;;;;4324349;33;20002;-84
2021/05/05 03:45:10;;;;;;;;;;;;;;;;;;4324992;33;19992;-85
2021/05/05 03:47:40;;;;;;;;;;;;;;;;;;4326051;33;20474;-84
2021/05/05 03:50:10;;;;;;;;;;;;;;;;;;4328923;33;20026;-84
2021/05/05 03:52:43;;;;;;;;;;;;;;;;;;4329277;32;19955;-85
2021/05/05 03:55:16;;;;;;;;;;;;;;;;;;4326336;33;20326;-85
2021/05/05 03:57:47;;;;;;;;;;;;;;;;;;4325444;33;20004;-85
2021/05/05 04:00:17;;;;;;;;;;;;;;;;;;4321822;33;19978;-85
2021/05/05 04:02:48;;;;;;;;;;;;;;;;;;4318797;33;19986;-85
2021/05/05 04:05:18;;;;;;;;;;;;;;;;;;4321383;33;19990;-84
2021/05/05 04:07:46;;;;;;;;;;;;;;;;;;4323990;33;19960;-85
2021/05/05 04:10:16;;;;;;;;;;;;;;;;;;4324235;33;20004;-85
2021/05/05 04:12:47;;;;;;;;;;;;;;;;;;4328214;32;19964;-85
2021/05/05 04:15:35;;;;;;;;;;;;;;;;;;4340860;33;19963;-85
2021/05/05 04:18:23;;;;;;;;;;;;;;;;;;4353757;32;19997;-84
2021/05/05 04:21:12;;;;;;;;;;;;;;;;;;4353093;32;19955;-84
2021/05/05 04:23:59;;;;;;;;;;;;;;;;;;4353307;32;19979;-84
2021/05/05 04:26:37;;;;;;;;;;;;;;;;;;4350836;32;20013;-85
2021/05/05 04:29:08;;;;;;;;;;;;;;;;;;4351915;32;20161;-83
2021/05/05 04:31:38;;;;;;;;;;;;;;;;;;4353983;32;19951;-84
2021/05/05 04:34:12;;;;;;;;;;;;;;;;;;4353877;32;19966;-84
2021/05/05 04:36:42;;;;;;;;;;;;;;;;;;4353783;32;19944;-83
2021/05/05 04:39:12;;;;;;;;;;;;;;;;;;4356508;32;20308;-84
2021/05/05 04:41:43;;;;;;;;;;;;;;;;;;4341272;33;19975;-83
2021/05/05 04:44:15;;;;;;;;;;;;;;;;;;4352967;32;20428;-84
2021/05/05 04:46:46;;;;;;;;;;;;;;;;;;4352415;32;20023;-83
2021/05/05 04:49:16;;;;;;;;;;;;;;;;;;4353326;32;19948;-84
2021/05/05 04:51:46;;;;;;;;;;;;;;;;;;4355314;32;20006;-84
2021/05/05 04:54:16;;;;;;;;;;;;;;;;;;4355153;32;20334;-83
2021/05/05 04:56:47;;;;;;;;;;;;;;;;;;4349659;32;20085;-84
2021/05/05 04:59:17;;;;;;;;;;;;;;;;;;4343711;32;20439;-84
2021/05/05 05:01:48;;;;;;;;;;;;;;;;;;4353976;33;19974;-83
2021/05/05 05:04:18;;;;;;;;;;;;;;;;;;4340477;33;20013;-84
2021/05/05 05:06:46;;;;;;;;;;;;;;;;;;4354261;32;20007;-83
2021/05/05 05:09:16;;;;;;;;;;;;;;;;;;4341873;33;20434;-85
2021/05/05 05:11:47;;;;;;;;;;;;;;;;;;4353051;32;20305;-84
2021/05/05 05:14:18;;;;;;;;;;;;;;;;;;4352622;32;19966;-85
2021/05/05 05:16:48;;;;;;;;;;;;;;;;;;4338673;33;20682;-83
2021/05/05 05:19:20;;;;;;;;;;;;;;;;;;4353095;32;19966;-83
2021/05/05 05:21:50;;;;;;;;;;;;;;;;;;4353746;32;19982;-84
2021/05/05 05:24:20;;;;;;;;;;;;;;;;;;4353472;32;20508;-85
2021/05/05 05:26:48;;;;;;;;;;;;;;;;;;4352229;32;19943;-83
2021/05/05 05:29:20;;;;;;;;;;;;;;;;;;4353003;32;20018;-84
2021/05/05 05:31:48;;;;;;;;;;;;;;;;;;4351603;32;19956;-84
2021/05/05 05:34:19;;;;;;;;;;;;;;;;;;4353115;32;19997;-84
2021/05/05 05:36:48;;;;;;;;;;;;;;;;;;4351273;32;19978;-84
2021/05/05 05:39:19;;;;;;;;;;;;;;;;;;4346918;32;19959;-84
2021/05/05 05:41:49;;;;;;;;;;;;;;;;;;4351323;32;19959;-83
2021/05/05 05:44:17;;;;;;;;;;;;;;;;;;4352612;32;20125;-83
2021/05/05 05:46:47;;;;;;;;;;;;;;;;;;4352634;32;19971;-85
2021/05/05 05:49:14;;;;;;;;;;;;;;;;;;4354599;32;19993;-83
2021/05/05 05:51:45;;;;;;;;;;;;;;;;;;4351293;33;20022;-84
2021/05/05 05:54:15;;;;;;;;;;;;;;;;;;4346611;32;20006;-84
2021/05/05 05:56:46;;;;;;;;;;;;;;;;;;4350774;32;19959;-83
2021/05/05 05:59:16;;;;;;;;;;;;;;;;;;4351806;32;19960;-84
2021/05/05 06:01:49;;;;;;;;;;;;;;;;;;4352540;33;20289;-83
2021/05/05 06:04:22;;;;;;;;;;;;;;;;;;4348609;33;19956;-84
2021/05/05 06:06:51;;;;;;;;;;;;;;;;;;4350473;32;19962;-83
2021/05/05 06:09:21;;;;;;;;;;;;;;;;;;4352665;33;20070;-83
2021/05/05 06:11:51;;;;;;;;;;;;;;;;;;4348824;32;20441;-84
2021/05/05 06:14:22;;;;;;;;;;;;;;;;;;4346001;32;19960;-84
2021/05/05 06:16:52;;;;;;;;;;;;;;;;;;4349519;32;19997;-83
2021/05/05 06:19:20;;;;;;;;;;;;;;;;;;4351572;33;19952;-84
2021/05/05 06:21:50;;;;;;;;;;;;;;;;;;4346947;32;20441;-84
2021/05/05 06:24:19;;;;;;;;;;;;;;;;;;4348465;32;20241;-83
2021/05/05 06:26:50;;;;;;;;;;;;;;;;;;4338981;33;19967;-83
2021/05/05 06:29:21;;;;;;;;;;;;;;;;;;4350297;33;20045;-83
2021/05/05 06:31:51;;;;;;;;;;;;;;;;;;4348001;32;20022;-84
2021/05/05 06:34:21;;;;;;;;;;;;;;;;;;4338347;33;20014;-84
2021/05/05 06:36:51;;;;;;;;;;;;;;;;;;4354556;32;20364;-84
2021/05/05 06:39:19;;;;;;;;;;;;;;;;;;4349161;32;20350;-83
2021/05/05 06:41:49;;;;;;;;;;;;;;;;;;4337711;33;19959;-83
2021/05/05 06:44:20;;;;;;;;;;;;;;;;;;4352369;32;20237;-84
2021/05/05 06:46:54;;;;;;;;;;;;;;;;;;4351313;32;19947;-84
2021/05/05 06:49:25;;;;;;;;;;;;;;;;;;4356374;32;20122;-83
2021/05/05 06:51:53;;;;;;;;;;;;;;;;;;4353493;32;20030;-84
2021/05/05 06:54:23;;;;;;;;;;;;;;;;;;4352861;32;19964;-83
2021/05/05 06:56:54;;;;;;;;;;;;;;;;;;4353616;32;19995;-84
2021/05/05 06:59:24;;;;;;;;;;;;;;;;;;4347004;33;20372;-84
2021/05/05 07:01:55;;;;;;;;;;;;;;;;;;4351946;32;20023;-83
2021/05/05 07:04:25;;;;;;;;;;;;;;;;;;4354555;32;19966;-84
2021/05/05 07:06:56;;;;;;;;;;;;;;;;;;4351828;32;19960;-84
2021/05/05 07:09:35;;;;;;;;;;;;;;;;;;4351892;32;20324;-84
2021/05/05 07:12:05;;;;;;;;;;;;;;;;;;4349433;32;20011;-84
2021/05/05 07:14:35;;;;;;;;;;;;;;;;;;4354543;33;19955;-84
2021/05/05 07:17:08;;;;;;;;;;;;;;;;;;4352084;32;19955;-84
2021/05/05 07:19:40;;;;;;;;;;;;;;;;;;4350159;32;19998;-85
2021/05/05 07:22:11;;;;;;;;;;;;;;;;;;4350294;32;19955;-85
2021/05/05 07:24:40;;;;;;;;;;;;;;;;;;4356115;32;19961;-84
2021/05/05 07:27:08;;;;;;;;;;;;;;;;;;4354433;32;20282;-84
2021/05/05 07:29:39;;;;;;;;;;;;;;;;;;4349692;32;20442;-84
2021/05/05 07:32:09;;;;;;;;;;;;;;;;;;4339679;32;20980;-84
2021/05/05 07:34:41;;;;;;;;;;;;;;;;;;4353899;32;19993;-84
2021/05/05 07:37:23;;;;;;;;;;;;;;;;;;4345864;32;20328;-85
2021/05/05 07:43:18;;;;;;;;;;;;;;;;;;4345651;32;19991;-84
2021/05/05 07:50:56;;;;;;;;;;;;;;;;;;4348302;32;19959;-85
2021/05/05 07:53:22;;;;;;;;;;;;;;;;;;4352426;33;20045;-85
2021/05/05 07:55:51;;;;;;;;;;;;;;;;;;4352751;32;20694;-84
2021/05/05 07:58:21;;;;;;;;;;;;;;;;;;4349867;32;20777;-84
2021/05/05 08:00:51;;;;;;;;;;;;;;;;;;4342771;32;19959;-83
2021/05/05 08:03:22;;;;;;;;;;;;;;;;;;4353044;32;19955;-85
2021/05/05 08:05:53;;;;;;;;;;;;;;;;;;4352622;32;20007;-84
2021/05/05 08:08:26;;;;;;;;;;;;;;;;;;4354201;32;19956;-84
2021/05/05 08:10:56;;;;;;;;;;;;;;;;;;4344363;32;19962;-85
2021/05/05 08:13:27;;;;;;;;;;;;;;;;;;4352153;32;19959;-84
2021/05/05 08:15:57;;;;;;;;;;;;;;;;;;4351078;33;20303;-84
2021/05/05 08:18:27;;;;;;;;;;;;;;;;;;4347211;32;19982;-84
2021/05/05 08:21:00;;;;;;;;;;;;;;;;;;4341740;32;19974;-84
2021/05/05 08:23:29;;;;;;;;;;;;;;;;;;4335825;33;19977;-84
2021/05/05 08:25:59;;;;;;;;;;;;;;;;;;4351797;32;19955;-84
2021/05/05 08:28:29;;;;;;;;;;;;;;;;;;4343811;32;19965;-85
2021/05/05 08:30:59;;;;;;;;;;;;;;;;;;4344537;32;19983;-83
2021/05/05 08:33:30;;;;;;;;;;;;;;;;;;4336025;33;19971;-84
2021/05/05 08:36:01;;;;;;;;;;;;;;;;;;4337071;32;20019;-84
2021/05/05 08:38:31;;;;;;;;;;;;;;;;;;4343646;32;19959;-84
2021/05/05 08:41:07;;;;;;;;;;;;;;;;;;4330407;32;19952;-83
2021/05/05 08:43:41;;;;;;;;;;;;;;;;;;4342066;32;20006;-84
2021/05/05 08:46:12;;;;;;;;;;;;;;;;;;4343934;32;20015;-84
2021/05/05 08:48:43;;;;;;;;;;;;;;;;;;4342355;32;20010;-84
2021/05/05 08:51:14;;;;;;;;;;;;;;;;;;4346696;32;19951;-84
2021/05/05 08:53:44;;;;;;;;;;;;;;;;;;4345158;32;19947;-85
2021/05/05 08:56:15;;;;;;;;;;;;;;;;;;4342133;32;21106;-84
2021/05/05 08:58:44;;;;;;;;;;;;;;;;;;4343647;33;20023;-85
2021/05/05 09:01:15;;;;;;;;;;;;;;;;;;4346102;33;19952;-85
2021/05/05 09:03:45;;;;;;;;;;;;;;;;;;4332464;33;20015;-84
2021/05/05 09:06:16;;;;;;;;;;;;;;;;;;4342050;32;19959;-84
2021/05/05 09:08:43;;;;;;;;;;;;;;;;;;4345764;32;20046;-84
2021/05/05 09:11:15;;;;;;;;;;;;;;;;;;4350988;33;20003;-84
2021/05/05 09:13:43;;;;;;;;;;;;;;;;;;4349000;32;20006;-83
2021/05/05 09:16:13;;;;;;;;;;;;;;;;;;4348613;32;20045;-84
2021/05/05 09:19:01;;;;;;;;;;;;;;;;;;4345286;32;20765;-85
2021/05/05 09:21:39;;;;;;;;;;;;;;;;;;4343707;33;19993;-84
2021/05/05 09:24:09;;;;;;;;;;;;;;;;;;4332359;33;19990;-85
2021/05/05 09:26:37;;;;;;;;;;;;;;;;;;4345262;32;20010;-84
2021/05/05 09:29:07;;;;;;;;;;;;;;;;;;4349159;32;20002;-85
2021/05/05 09:31:37;;;;;;;;;;;;;;;;;;4350777;32;19978;-84
2021/05/05 09:34:09;;;;;;;;;;;;;;;;;;4348467;32;20041;-84
2021/05/05 09:36:39;;;;;;;;;;;;;;;;;;4341656;32;20154;-84
2021/05/05 09:39:10;;;;;;;;;;;;;;;;;;4353531;32;19971;-84
2021/05/05 09:41:38;;;;;;;;;;;;;;;;;;4351206;32;20327;-84
2021/05/05 09:44:08;;;;;;;;;;;;;;;;;;4352415;33;19993;-84
2021/05/05 09:46:45;;;;;;;;;;;;;;;;;;4352021;32;19966;-84
2021/05/05 09:49:13;;;;;;;;;;;;;;;;;;4353038;32;19987;-84
2021/05/05 09:51:44;;;;;;;;;;;;;;;;;;4353497;32;20001;-84
2021/05/05 09:54:15;;;;;;;;;;;;;;;;;;4347771;32;20010;-84
2021/05/05 09:56:46;;;;;;;;;;;;;;;;;;4344285;32;20101;-84
2021/05/05 09:59:17;;;;;;;;;;;;;;;;;;4330588;32;20033;-84
2021/05/05 10:01:49;;;;;;;;;;;;;;;;;;4339521;33;19995;-84
2021/05/05 10:04:32;;;;;;;;;;;;;;;;;;4343152;33;20027;-86
2021/05/05 10:07:04;;;;;;;;;;;;;;;;;;4344628;32;20026;-84
2021/05/05 10:09:43;;;;;;;;;;;;;;;;;;4350331;33;20026;-85
2021/05/05 10:12:15;;;;;;;;;;;;;;;;;;4348937;32;21851;-85
2021/05/05 10:14:46;;;;;;;;;;;;;;;;;;4344211;32;20586;-85
2021/05/05 10:17:14;;;;;;;;;;;;;;;;;;4355549;32;20338;-85
2021/05/05 10:19:44;;;;;;;;;;;;;;;;;;4353592;32;19967;-85
2021/05/05 10:22:16;;;;;;;;;;;;;;;;;;4336397;32;19967;-85
2021/05/05 10:24:47;;;;;;;;;;;;;;;;;;4297664;33;19964;-85
2021/05/05 10:27:17;;;;;;;;;;;;;;;;;;4298585;33;20011;-86
2021/05/05 10:29:50;;;;;;;;;;;;;;;;;;4292531;33;20549;-87
2021/05/05 10:32:20;;;;;;;;;;;;;;;;;;4298877;33;19967;-85
2021/05/05 10:34:51;;;;;;;;;;;;;;;;;;4295427;33;20026;-86
2021/05/05 10:37:21;;;;;;;;;;;;;;;;;;4297719;33;19949;-86
2021/05/05 10:39:51;;;;;;;;;;;;;;;;;;4297958;33;19975;-84
2021/05/05 10:42:26;;;;;;;;;;;;;;;;;;4298484;33;20347;-84
2021/05/05 10:44:58;;;;;;;;;;;;;;;;;;4295636;33;20002;-85
2021/05/05 10:47:31;;;;;;;;;;;;;;;;;;4296549;33;19976;-84
2021/05/05 10:52:31;;;;;;;;;;;;;;;;;;4292369;33;19995;-85
2021/05/05 10:55:01;;;;;;;;;;;;;;;;;;4297708;33;19960;-85
2021/05/05 10:57:32;;;;;;;;;;;;;;;;;;4295954;33;19968;-84
2021/05/05 11:00:07;;;;;;;;;;;;;;;;;;4299709;33;20020;-84
2021/05/05 11:02:38;;;;;;;;;;;;;;;;;;4294011;33;19999;-85
2021/05/05 11:05:08;;;;;;;;;;;;;;;;;;4299972;33;20003;-84
2021/05/05 11:07:39;;;;;;;;;;;;;;;;;;4291440;33;20017;-85
2021/05/05 11:10:08;;;;;;;;;;;;;;;;;;4299893;33;19983;-84
2021/05/05 11:12:39;;;;;;;;;;;;;;;;;;4299955;33;20032;-84
2021/05/05 11:15:09;;;;;;;;;;;;;;;;;;4295854;33;20063;-85
2021/05/05 11:17:40;;;;;;;;;;;;;;;;;;4292345;33;20038;-85
2021/05/05 11:20:28;;;;;;;;;;;;;;;;;;4294864;33;20026;-85
2021/05/05 11:22:58;;;;;;;;;;;;;;;;;;4292406;33;20268;-86
2021/05/05 11:25:29;;;;;;;;;;;;;;;;;;4299123;33;20297;-84
2021/05/05 11:28:00;;;;;;;;;;;;;;;;;;4300589;33;20322;-85
2021/05/05 11:30:30;;;;;;;;;;;;;;;;;;4301563;33;20007;-85
2021/05/05 11:33:00;;;;;;;;;;;;;;;;;;4297488;33;19996;-85
2021/05/05 11:35:31;;;;;;;;;;;;;;;;;;4304088;33;19965;-84
2021/05/05 11:38:02;;;;;;;;;;;;;;;;;;4292921;33;19966;-85
2021/05/05 11:40:32;;;;;;;;;;;;;;;;;;4290806;33;19948;-85
2021/05/05 11:43:03;;;;;;;;;;;;;;;;;;4297531;33;20019;-85
2021/05/05 11:45:41;;;;;;;;;;;;;;;;;;4296974;33;20110;-84
2021/05/05 11:48:17;;;;;;;;;;;;;;;;;;4293561;33;19991;-85
2021/05/05 11:50:45;;;;;;;;;;;;;;;;;;4308765;33;19975;-85
2021/05/05 11:53:15;;;;;;;;;;;;;;;;;;4298268;33;19957;-85
2021/05/05 11:55:45;;;;;;;;;;;;;;;;;;4289250;33;20017;-85
2021/05/05 11:58:15;;;;;;;;;;;;;;;;;;4291647;33;20030;-85
2021/05/05 12:00:45;;;;;;;;;;;;;;;;;;4287106;33;19961;-84
2021/05/05 12:03:16;;;;;;;;;;;;;;;;;;4303081;33;19982;-85
2021/05/05 12:05:51;;;;;;;;;;;;;;;;;;4303232;33;20024;-85
2021/05/05 12:08:19;;;;;;;;;;;;;;;;;;4302890;33;19988;-85
2021/05/05 12:10:51;;;;;;;;;;;;;;;;;;4301087;33;20016;-85
2021/05/05 12:13:21;;;;;;;;;;;;;;;;;;4293947;33;19957;-84
2021/05/05 12:16:00;;;;;;;;;;;;;;;;;;4299628;33;19968;-85
2021/05/05 12:18:35;;;;;;;;;;;;;;;;;;4297773;33;20043;-85
2021/05/05 12:21:05;;;;;;;;;;;;;;;;;;4288307;33;20062;-86
2021/05/05 12:23:36;;;;;;;;;;;;;;;;;;4293321;33;20102;-85
2021/05/05 12:26:06;;;;;;;;;;;;;;;;;;4293898;33;19960;-84
2021/05/05 12:28:34;;;;;;;;;;;;;;;;;;4297805;33;20403;-86
2021/05/05 12:31:01;;;;;;;;;;;;;;;;;;4290567;33;19953;-86
2021/05/05 12:33:32;;;;;;;;;;;;;;;;;;4291538;33;19957;-85
2021/05/05 12:36:03;;;;;;;;;;;;;;;;;;4294527;33;20363;-85
2021/05/05 12:38:33;;;;;;;;;;;;;;;;;;4306084;33;20004;-85
2021/05/05 12:41:02;;;;;;;;;;;;;;;;;;4296977;33;19975;-85
2021/05/05 12:43:30;;;;;;;;;;;;;;;;;;4300594;33;20000;-86
2021/05/05 12:46:00;;;;;;;;;;;;;;;;;;4297977;33;19956;-84
2021/05/05 12:48:32;;;;;;;;;;;;;;;;;;4301094;33;20319;-86
2021/05/05 12:51:02;;;;;;;;;;;;;;;;;;4289105;33;19953;-85
2021/05/05 12:53:32;;;;;;;;;;;;;;;;;;4295439;33;20036;-85
2021/05/05 12:56:02;;;;;;;;;;;;;;;;;;4289859;33;20003;-86
2021/05/05 12:58:30;;;;;;;;;;;;;;;;;;4298387;33;19969;-85
2021/05/05 13:01:00;;;;;;;;;;;;;;;;;;4291782;33;19957;-86
2021/05/05 13:03:31;;;;;;;;;;;;;;;;;;4290474;33;20348;-84
2021/05/05 13:06:24;;;;;;;;;;;;;;;;;;4306112;33;20007;-86
2021/05/05 13:08:57;;;;;;;;;;;;;;;;;;4294010;33;19961;-85
2021/05/05 13:11:30;;;;;;;;;;;;;;;;;;4288677;33;19999;-85
2021/05/05 13:14:10;;;;;;;;;;;;;;;;;;4291680;33;20143;-84
2021/05/05 13:16:46;;;;;;;;;;;;;;;;;;4287987;33;20016;-85
2021/05/05 13:30:35;;;;;;;;;;;;;;;;;;4290592;33;19961;-84
2021/05/05 13:33:17;;;;;;;;;;;;;;;;;;4295623;33;19960;-84
2021/05/05 13:35:49;;;;;;;;;;;;;;;;;;4304034;33;20034;-84
2021/05/05 13:38:19;;;;;;;;;;;;;;;;;;4309023;33;20031;-84
2021/05/05 13:40:51;;;;;;;;;;;;;;;;;;4295850;33;19979;-84
2021/05/05 13:43:44;;;;;;;;;;;;;;;;;;4290067;33;19974;-85
2021/05/05 13:49:23;;;;;;;;;;;;;;;;;;4290050;33;19984;-85
2021/05/05 13:51:58;;;;;;;;;;;;;;;;;;4293353;33;20044;-84
2021/05/05 13:54:29;;;;;;;;;;;;;;;;;;4295683;33;20032;-84
2021/05/05 13:57:03;;;;;;;;;;;;;;;;;;4291949;33;19957;-84
2021/05/05 13:59:42;;;;;;;;;;;;;;;;;;4293560;33;19973;-84
2021/05/05 14:02:12;;;;;;;;;;;;;;;;;;4292957;33;20599;-85
2021/05/05 14:04:42;;;;;;;;;;;;;;;;;;4295183;33;20321;-84
2021/05/05 14:07:13;;;;;;;;;;;;;;;;;;4293920;33;20008;-84
2021/05/05 14:09:44;;;;;;;;;;;;;;;;;;4302342;33;19992;-84
2021/05/05 14:12:14;;;;;;;;;;;;;;;;;;4289060;33;20035;-85
2021/05/05 14:14:44;;;;;;;;;;;;;;;;;;4298148;33;19997;-84
2021/05/05 14:17:15;;;;;;;;;;;;;;;;;;4291213;33;20019;-84
2021/05/05 14:19:46;;;;;;;;;;;;;;;;;;4290437;33;19961;-85
2021/05/05 14:22:17;;;;;;;;;;;;;;;;;;4294967;33;20295;-84
2021/05/05 14:24:47;;;;;;;;;;;;;;;;;;4290420;33;19973;-84
2021/05/05 14:27:17;;;;;;;;;;;;;;;;;;4290317;33;20026;-84
2021/05/05 14:29:50;;;;;;;;;;;;;;;;;;4283257;33;19983;-85
2021/05/05 14:32:20;;;;;;;;;;;;;;;;;;4300631;33;19974;-85
2021/05/05 14:34:50;;;;;;;;;;;;;;;;;;4293935;33;19995;-84
2021/05/05 14:37:22;;;;;;;;;;;;;;;;;;4294276;33;20071;-85
2021/05/05 14:39:53;;;;;;;;;;;;;;;;;;4292518;33;19964;-84
2021/05/05 14:42:28;;;;;;;;;;;;;;;;;;4293441;33;20027;-83
2021/05/05 14:47:57;;;;;;;;;;;;;;;;;;4284675;33;19997;-83
2021/05/05 14:50:28;;;;;;;;;;;;;;;;;;4290986;33;19992;-84
2021/05/05 14:52:56;;;;;;;;;;;;;;;;;;4291660;33;19960;-84
2021/05/05 14:55:26;;;;;;;;;;;;;;;;;;4295030;33;20346;-84
2021/05/05 14:58:07;;;;;;;;;;;;;;;;;;4294460;33;19988;-84
2021/05/05 15:00:39;;;;;;;;;;;;;;;;;;4294896;33;20819;-85
2021/05/05 15:03:09;;;;;;;;;;;;;;;;;;4295608;33;20083;-83
2021/05/05 15:05:53;;;;;;;;;;;;;;;;;;4294902;33;20346;-83
2021/05/05 15:08:29;;;;;;;;;;;;;;;;;;4289626;33;20484;-84
2021/05/05 15:11:37;;;;;;;;;;;;;;;;;;4295753;33;19968;-84
2021/05/05 15:14:15;;;;;;;;;;;;;;;;;;4296983;33;19961;-85
2021/05/05 15:36:19;;;;;;;;;;;;;;;;;;4292321;33;20268;-84
2021/05/05 15:38:55;;;;;;;;;;;;;;;;;;4291556;33;20392;-85
2021/05/05 15:41:40;;;;;;;;;;;;;;;;;;4295943;33;20443;-83
2021/05/05 15:49:37;;;;;;;;;;;;;;;;;;4294854;33;19961;-83
2021/05/05 15:52:08;;;;;;;;;;;;;;;;;;4294040;33;19994;-85
2021/05/05 15:54:36;;;;;;;;;;;;;;;;;;4291890;33;19980;-84
2021/05/05 15:57:08;;;;;;;;;;;;;;;;;;4293533;33;20000;-85
2021/05/05 15:59:50;;;;;;;;;;;;;;;;;;4291579;33;19995;-84
2021/05/05 16:16:21;;;;;;;;;;;;;;;;;;4322671;33;19956;-84
2021/05/05 16:18:58;;;;;;;;;;;;;;;;;;4305164;33;20075;-84
2021/05/05 16:21:35;;;;;;;;;;;;;;;;;;4309871;33;19986;-84
2021/05/05 16:26:53;;;;;;;;;;;;;;;;;;4304112;33;19952;-84
2021/05/05 16:43:49;;;;;;;;;;;;;;;;;;4315623;33;20319;-83
2021/05/05 16:49:00;;;;;;;;;;;;;;;;;;4308861;33;20355;-84
2021/05/05 16:51:49;;;;;;;;;;;;;;;;;;4309177;33;20347;-87
2021/05/05 16:54:24;;;;;;;;;;;;;;;;;;4308042;33;20020;-83
2021/05/05 17:05:24;;;;;;;;;;;;;;;;;;4306309;33;20003;-85
2021/05/05 17:08:08;;;;;;;;;;;;;;;;;;4309711;33;20524;-84
2021/05/05 17:10:39;;;;;;;;;;;;;;;;;;4310392;33;20002;-84
2021/05/05 17:13:10;;;;;;;;;;;;;;;;;;4308831;33;19960;-84
2021/05/05 17:15:47;;;;;;;;;;;;;;;;;;4308024;33;20035;-84
2021/05/05 17:24:20;;;;;;;;;;;;;;;;;;4305062;33;20359;-84
2021/05/05 17:27:39;;;;;;;;;;;;;;;;;;4305150;33;19949;-85
2021/05/05 17:29:59;;;;;;;;;;;;;;;;;;4304726;33;20027;-84
2021/05/05 17:38:14;;;;;;;;;;;;;;;;;;4306722;33;20032;-83
2021/05/05 17:38:51;;;;;;;;;;;;;;;;;;4316692;33;19952;-84
2021/05/05 18:12:24;;;;;;;;;;;;;;;;;;4311539;33;20299;-85
2021/05/05 18:19:16;;;;;;;;;;;;;;;;;;4310261;33;19961;-84
2021/05/05 18:24:31;;;;;;;;;;;;;;;;;;4303259;33;19960;-84
2021/05/05 18:29:48;;;;;;;;;;;;;;;;;;4305823;33;20008;-86
2021/05/05 18:32:16;;;;;;;;;;;;;;;;;;4310074;33;20142;-84
2021/05/05 18:35:01;;;;;;;;;;;;;;;;;;4307122;33;19979;-84
2021/05/05 18:37:34;;;;;;;;;;;;;;;;;;4312239;33;19952;-84
2021/05/05 18:40:06;;;;;;;;;;;;;;;;;;4310799;33;20039;-85
2021/05/05 18:42:42;;;;;;;;;;;;;;;;;;4310723;33;19956;-84
2021/05/05 19:02:33;;;;;;;;;;;;;;;;;;4314335;33;20003;-84
2021/05/05 19:49:37;;;;;;;;;;;;;;;;;;4311095;33;20058;-84
2021/05/05 19:58:48;;;;;;;;;;;;;;;;;;4318104;33;20014;-84
2021/05/05 20:25:34;;;;;;;;;;;;;;;;;;4310845;33;19975;-84
2021/05/05 20:49:17;;;;;;;;;;;;;;;;;;4305756;33;19974;-84
2021/05/05 21:05:57;;;;;;;;;;;;;;;;;;4282914;33;19960;-85
2021/05/05 23:10:00;;;;;;;;;;;;;;;;;;4304062;33;20000;-84
2021/05/05 23:26:53;;;;;;;;;;;;;;;;;;4312414;33;19962;-83
2021/05/05 23:39:03;;;;;;;;;;;;;;;;;;4311624;33;20012;-83
